Time;durP1;ratioP1;P1;durP2;ratioP2;P2;SDS_P1;SDS_P2;PMS_P1;PMS_P2;Temp;Humidity;BMP_temperature;BMP_pressure;BME280_temperature;BME280_humidity;BME280_pressure;Samples;Min_cycle;Max_cycle;Signal;HPM_P1;HPM_P2
2023/10/14 00:02:03;;;;;;;10.30;3.37;;;22.20;49.20;;;;;;5020795;28;20471;-69
2023/10/14 00:04:31;;;;;;;9.67;3.13;;;22.10;49.80;;;;;;5023741;28;20508;-70
2023/10/14 00:07:06;;;;;;;12.77;3.57;;;22.10;50.60;;;;;;5023478;28;20524;-69
2023/10/14 00:09:42;;;;;;;11.30;3.87;;;22.00;52.00;;;;;;5024708;28;20850;-68
2023/10/14 00:12:13;;;;;;;9.20;3.00;;;21.80;52.10;;;;;;5024846;28;20468;-69
2023/10/14 00:14:43;;;;;;;11.10;3.10;;;21.80;51.80;;;;;;5025659;28;20469;-68
2023/10/14 00:17:15;;;;;;;9.97;3.70;;;21.80;52.80;;;;;;5025442;28;20518;-68
2023/10/14 00:19:49;;;;;;;10.50;3.60;;;21.70;52.90;;;;;;5025108;28;20992;-69
2023/10/14 00:22:18;;;;;;;11.00;4.07;;;21.80;53.70;;;;;;5023386;28;20444;-68
2023/10/14 00:24:48;;;;;;;10.00;4.03;;;21.90;55.40;;;;;;5024372;28;20519;-69
2023/10/14 00:27:17;;;;;;;10.10;4.60;;;22.00;55.70;;;;;;5025267;28;20437;-69
2023/10/14 00:29:45;;;;;;;10.07;4.50;;;22.10;56.10;;;;;;5025132;28;20484;-68
2023/10/14 00:32:13;;;;;;;10.90;3.70;;;22.10;56.10;;;;;;5024321;28;20469;-68
2023/10/14 00:34:42;;;;;;;12.30;4.20;;;22.00;56.70;;;;;;5024386;28;20465;-68
2023/10/14 00:37:10;;;;;;;10.83;4.00;;;21.90;57.40;;;;;;5025042;28;20532;-69
2023/10/14 00:39:38;;;;;;;11.23;3.57;;;21.80;56.30;;;;;;5025588;28;20445;-68
2023/10/14 00:42:09;;;;;;;11.20;3.90;;;21.70;56.30;;;;;;5024686;28;20441;-68
2023/10/14 00:44:38;;;;;;;12.30;4.10;;;21.80;56.20;;;;;;5023616;28;21079;-68
2023/10/14 00:47:15;;;;;;;18.33;5.80;;;21.90;57.50;;;;;;5024733;28;20479;-68
2023/10/14 00:49:43;;;;;;;9.43;4.00;;;21.90;58.50;;;;;;5022964;28;20440;-68
2023/10/14 00:52:18;;;;;;;13.73;4.20;;;22.00;59.10;;;;;;5023919;28;20570;-68
2023/10/14 00:54:58;;;;;;;12.20;4.27;;;22.00;60.20;;;;;;5024260;28;20484;-68
2023/10/14 00:57:38;;;;;;;10.17;4.20;;;22.00;60.30;;;;;;5024597;28;20432;-69
2023/10/14 01:00:10;;;;;;;10.10;4.20;;;21.90;60.70;;;;;;5024103;28;20560;-69
2023/10/14 01:02:38;;;;;;;15.37;4.70;;;21.80;61.40;;;;;;5024182;28;20444;-69
2023/10/14 01:05:10;;;;;;;12.27;4.27;;;21.70;62.40;;;;;;5024882;28;20475;-67
2023/10/14 01:07:39;;;;;;;10.07;4.67;;;21.70;63.00;;;;;;5024685;28;20448;-68
2023/10/14 01:10:11;;;;;;;15.77;5.10;;;21.80;63.50;;;;;;5023000;28;20539;-69
2023/10/14 01:12:44;;;;;;;10.93;4.23;;;21.80;64.20;;;;;;5023605;28;20473;-70
2023/10/14 01:15:20;;;;;;;14.73;5.53;;;21.90;64.80;;;;;;5024537;28;20823;-69
2023/10/14 01:17:49;;;;;;;9.20;4.33;;;21.90;64.90;;;;;;5024680;28;20833;-68
2023/10/14 01:20:35;;;;;;;14.73;5.30;;;21.90;65.10;;;;;;5023549;28;20452;-69
2023/10/14 01:23:07;;;;;;;10.87;4.90;;;21.90;66.50;;;;;;5023541;28;20487;-69
2023/10/14 01:25:41;;;;;;;12.30;5.43;;;21.70;67.50;;;;;;5024597;28;20468;-67
2023/10/14 01:28:12;;;;;;;12.60;5.60;;;21.70;69.10;;;;;;5022020;28;20452;-68
2023/10/14 01:30:58;;;;;;;13.30;4.83;;;21.60;70.40;;;;;;5024219;28;20445;-68
2023/10/14 01:33:26;;;;;;;12.03;6.00;;;21.50;71.60;;;;;;5023960;28;20488;-68
2023/10/14 01:35:54;;;;;;;12.47;6.00;;;21.40;72.80;;;;;;5024944;28;20521;-68
2023/10/14 01:38:24;;;;;;;14.80;6.63;;;21.30;73.80;;;;;;5024485;28;20452;-68
2023/10/14 01:40:53;;;;;;;10.77;5.37;;;21.30;74.70;;;;;;5024310;28;20804;-69
2023/10/14 01:43:24;;;;;;;10.83;6.20;;;21.10;75.70;;;;;;5024192;28;20468;-68
2023/10/14 01:46:00;;;;;;;10.60;5.43;;;21.00;76.50;;;;;;5024368;28;20449;-68
2023/10/14 01:48:31;;;;;;;12.80;6.00;;;21.00;77.10;;;;;;5028472;28;20447;-67
2023/10/14 01:50:59;;;;;;;9.70;5.23;;;20.90;77.60;;;;;;5028217;28;20433;-69
2023/10/14 01:53:31;;;;;;;10.37;5.33;;;20.90;78.20;;;;;;5027157;28;20481;-68
2023/10/14 01:56:01;;;;;;;12.73;5.40;;;20.80;78.90;;;;;;5028177;28;20566;-68
2023/10/14 01:58:32;;;;;;;10.77;5.43;;;20.80;79.60;;;;;;5027553;28;20514;-69
2023/10/14 02:01:07;;;;;;;13.03;5.87;;;20.80;80.30;;;;;;5027399;28;20586;-70
2023/10/14 02:03:41;;;;;;;11.87;5.77;;;20.70;81.20;;;;;;5027703;28;20460;-68
2023/10/14 02:06:16;;;;;;;12.93;6.33;;;20.70;82.30;;;;;;5027870;28;20436;-66
2023/10/14 02:08:47;;;;;;;12.20;6.47;;;20.60;83.20;;;;;;5027925;28;20518;-69
2023/10/14 02:11:20;;;;;;;10.70;5.60;;;20.50;84.10;;;;;;5027362;28;20448;-69
2023/10/14 02:13:49;;;;;;;11.17;6.00;;;20.50;84.90;;;;;;5027424;28;20503;-69
2023/10/14 02:16:24;;;;;;;10.50;5.80;;;20.40;85.80;;;;;;5027980;28;20449;-69
2023/10/14 02:19:00;;;;;;;12.97;6.60;;;20.30;86.60;;;;;;5028056;28;20470;-69
2023/10/14 02:21:34;;;;;;;10.20;5.57;;;20.30;87.40;;;;;;5027204;28;20531;-69
2023/10/14 02:24:04;;;;;;;12.37;5.67;;;20.20;88.30;;;;;;5027476;28;20469;-69
2023/10/14 02:26:33;;;;;;;12.10;5.47;;;20.20;89.10;;;;;;5027630;28;20441;-68
2023/10/14 02:29:06;;;;;;;15.20;5.43;;;20.20;89.80;;;;;;5027629;28;20818;-69
2023/10/14 02:31:36;;;;;;;12.90;5.60;;;20.20;90.10;;;;;;5026913;28;20440;-68
2023/10/14 02:34:06;;;;;;;10.97;5.60;;;20.20;90.40;;;;;;5027013;28;21243;-68
2023/10/14 02:36:35;;;;;;;11.53;6.40;;;20.20;90.80;;;;;;5027045;28;20437;-68
2023/10/14 02:39:11;;;;;;;13.23;5.67;;;20.20;91.00;;;;;;5027401;28;20457;-68
2023/10/14 02:41:43;;;;;;;10.80;5.73;;;20.20;91.30;;;;;;5025328;28;20549;-69
2023/10/14 02:44:28;;;;;;;13.77;6.10;;;20.30;91.50;;;;;;5025883;28;21031;-68
2023/10/14 02:47:01;;;;;;;11.40;6.60;;;20.30;91.90;;;;;;5027146;28;20543;-69
2023/10/14 02:49:35;;;;;;;14.30;5.37;;;20.30;92.10;;;;;;5026707;28;20490;-68
2023/10/14 02:52:08;;;;;;;11.43;6.13;;;20.20;92.30;;;;;;5026269;28;20457;-68
2023/10/14 02:54:40;;;;;;;11.67;5.40;;;20.30;92.60;;;;;;5026347;28;20484;-68
2023/10/14 02:57:14;;;;;;;12.70;5.80;;;20.30;92.80;;;;;;5026810;28;20974;-68
2023/10/14 02:59:47;;;;;;;13.10;6.33;;;20.30;93.00;;;;;;5026129;28;20528;-68
2023/10/14 03:02:25;;;;;;;12.83;6.20;;;20.20;93.20;;;;;;5026341;28;20529;-68
2023/10/14 03:05:09;;;;;;;14.00;6.40;;;20.30;93.30;;;;;;5026626;28;20475;-68
2023/10/14 03:07:50;;;;;;;20.77;7.33;;;20.20;93.60;;;;;;5026259;28;20452;-68
2023/10/14 03:10:28;;;;;;;12.03;6.30;;;20.20;94.00;;;;;;5024835;28;20481;-68
2023/10/14 03:12:57;;;;;;;15.40;6.03;;;20.30;94.20;;;;;;5024851;28;20444;-67
2023/10/14 03:15:28;;;;;;;9.93;5.47;;;20.20;94.30;;;;;;5026151;28;20560;-67
2023/10/14 03:17:58;;;;;;;11.37;6.07;;;20.20;94.50;;;;;;5026809;28;20535;-69
2023/10/14 03:20:36;;;;;;;10.97;5.80;;;20.20;94.90;;;;;;5027237;28;20475;-67
2023/10/14 03:23:10;;;;;;;11.70;5.93;;;20.20;94.90;;;;;;5025799;28;21020;-69
2023/10/14 03:25:41;;;;;;;13.67;6.13;;;20.20;95.10;;;;;;5025884;28;20433;-67
2023/10/14 03:28:13;;;;;;;13.23;6.50;;;20.30;95.30;;;;;;5026199;28;20856;-69
2023/10/14 03:30:45;;;;;;;11.67;5.90;;;20.30;95.30;;;;;;5026308;28;21113;-69
2023/10/14 03:33:14;;;;;;;12.93;5.43;;;20.30;95.50;;;;;;5026053;28;20477;-70
2023/10/14 03:35:44;;;;;;;13.80;6.47;;;20.40;95.40;;;;;;5026463;28;20445;-68
2023/10/14 03:38:33;;;;;;;11.00;5.67;;;20.40;95.50;;;;;;5025575;28;20441;-68
2023/10/14 03:41:04;;;;;;;11.27;5.73;;;20.50;95.40;;;;;;5025504;28;20449;-68
2023/10/14 03:43:42;;;;;;;12.43;5.60;;;20.50;95.30;;;;;;5025383;28;20457;-68
2023/10/14 03:46:14;;;;;;;14.43;6.60;;;20.50;95.30;;;;;;5026501;28;20976;-68
2023/10/14 03:48:50;;;;;;;11.77;5.57;;;20.50;95.50;;;;;;5026182;28;20445;-66
2023/10/14 03:51:24;;;;;;;11.80;5.83;;;20.50;95.50;;;;;;5025330;28;20467;-66
2023/10/14 03:53:53;;;;;;;10.50;5.63;;;20.60;95.60;;;;;;5025233;28;21844;-68
2023/10/14 03:56:25;;;;;;;11.90;5.80;;;20.60;95.70;;;;;;5026195;28;20471;-68
2023/10/14 03:58:57;;;;;;;13.60;6.40;;;20.50;95.80;;;;;;5026247;28;20456;-68
2023/10/14 04:01:30;;;;;;;12.53;6.23;;;20.50;96.00;;;;;;5025477;28;20449;-69
2023/10/14 04:04:01;;;;;;;11.60;5.93;;;20.50;96.10;;;;;;5025744;28;20453;-69
2023/10/14 04:06:35;;;;;;;13.37;6.10;;;20.50;96.20;;;;;;5025895;28;20826;-68
2023/10/14 04:09:09;;;;;;;15.43;6.70;;;20.50;96.30;;;;;;5025816;28;20437;-67
2023/10/14 04:11:39;;;;;;;11.30;6.13;;;20.60;96.30;;;;;;5025654;28;20445;-68
2023/10/14 04:14:13;;;;;;;15.93;6.53;;;20.60;96.40;;;;;;5025688;28;20572;-68
2023/10/14 04:17:00;;;;;;;12.67;6.57;;;20.60;96.40;;;;;;5025998;28;20447;-69
2023/10/14 04:19:37;;;;;;;13.97;6.20;;;20.60;96.30;;;;;;5025255;28;20480;-68
2023/10/14 04:22:25;;;;;;;16.00;5.70;;;20.60;96.40;;;;;;5024660;28;21154;-66
2023/10/14 04:25:15;;;;;;;13.80;5.63;;;20.60;96.60;;;;;;5025275;28;20539;-67
2023/10/14 04:27:56;;;;;;;12.60;6.07;;;20.40;99.90;;;;;;5025138;28;20440;-66
2023/10/14 04:30:32;;;;;;;13.90;5.23;;;19.10;99.90;;;;;;5024194;28;21275;-68
2023/10/14 04:33:18;;;;;;;13.10;4.83;;;18.00;99.90;;;;;;5024785;28;20828;-67
2023/10/14 04:35:58;;;;;;;11.67;4.80;;;17.40;99.90;;;;;;5024653;28;20481;-68
2023/10/14 04:38:37;;;;;;;13.77;6.03;;;16.90;99.90;;;;;;5024646;28;20452;-69
2023/10/14 04:41:12;;;;;;;11.10;4.60;;;16.60;99.90;;;;;;5024897;28;20824;-69
2023/10/14 04:44:00;;;;;;;11.33;4.53;;;16.40;99.90;;;;;;5024844;28;20471;-69
2023/10/14 04:46:45;;;;;;;11.70;4.67;;;16.30;99.90;;;;;;5024139;28;20464;-69
2023/10/14 04:49:16;;;;;;;9.93;3.93;;;16.20;99.90;;;;;;5024341;28;20450;-69
2023/10/14 04:51:47;;;;;;;12.87;4.00;;;16.20;99.90;;;;;;5024851;28;20449;-68
2023/10/14 04:54:19;;;;;;;11.03;4.30;;;16.20;99.90;;;;;;5024082;28;20490;-70
2023/10/14 04:56:48;;;;;;;13.70;4.80;;;16.10;99.90;;;;;;5024193;28;20489;-68
2023/10/14 04:59:22;;;;;;;12.43;4.93;;;16.10;99.90;;;;;;5024417;28;20510;-69
2023/10/14 05:01:50;;;;;;;10.60;4.60;;;16.10;99.90;;;;;;5023612;28;20518;-68
2023/10/14 05:04:20;;;;;;;11.07;4.60;;;16.00;99.90;;;;;;5024331;28;20472;-68
2023/10/14 05:06:52;;;;;;;12.70;5.47;;;16.00;99.90;;;;;;5024584;28;20450;-68
2023/10/14 05:09:30;;;;;;;12.90;5.40;;;16.00;99.90;;;;;;5024152;28;20487;-68
2023/10/14 05:12:00;;;;;;;11.90;4.87;;;16.00;99.90;;;;;;5023772;28;20438;-68
2023/10/14 05:14:36;;;;;;;13.53;5.90;;;16.10;99.90;;;;;;5023336;28;20495;-69
2023/10/14 05:17:14;;;;;;;15.57;5.90;;;16.10;99.90;;;;;;5024393;28;20448;-67
2023/10/14 05:19:43;;;;;;;11.03;5.30;;;16.20;99.90;;;;;;5023264;28;20498;-69
2023/10/14 05:22:18;;;;;;;13.80;5.67;;;16.20;99.90;;;;;;5027135;28;20867;-68
2023/10/14 05:24:49;;;;;;;9.53;5.17;;;16.10;99.90;;;;;;5028240;28;20498;-69
2023/10/14 05:27:19;;;;;;;13.50;6.17;;;16.10;99.90;;;;;;5028030;28;21124;-68
2023/10/14 05:29:51;;;;;;;13.00;5.17;;;16.10;99.90;;;;;;5028189;28;20783;-68
2023/10/14 05:32:30;;;;;;;12.90;5.90;;;16.20;99.90;;;;;;5027578;28;20875;-70
2023/10/14 05:35:00;;;;;;;14.33;5.50;;;16.20;99.90;;;;;;5027952;28;20476;-68
2023/10/14 05:37:27;;;;;;;18.00;8.63;;;16.30;99.90;;;;;;5028150;28;20541;-69
2023/10/14 05:39:55;;;;;;;11.43;5.23;;;16.30;99.90;;;;;;5028043;28;20441;-69
2023/10/14 05:42:24;;;;;;;11.03;5.20;;;16.30;99.90;;;;;;5027929;28;20502;-68
2023/10/14 05:44:57;;;;;;;13.40;5.33;;;16.40;99.90;;;;;;5028152;28;21162;-68
2023/10/14 05:47:27;;;;;;;12.40;5.30;;;16.40;99.90;;;;;;5027698;28;21106;-68
2023/10/14 05:49:55;;;;;;;12.87;4.80;;;16.40;99.90;;;;;;5028048;28;20459;-67
2023/10/14 05:52:24;;;;;;;12.23;5.77;;;16.40;99.90;;;;;;5027950;28;20436;-68
2023/10/14 05:54:53;;;;;;;12.80;5.40;;;16.30;99.90;;;;;;5027771;28;20585;-68
2023/10/14 05:57:22;;;;;;;13.53;5.10;;;16.30;99.90;;;;;;5027493;28;20451;-67
2023/10/14 05:59:51;;;;;;;11.30;5.30;;;16.30;99.90;;;;;;5027460;28;21236;-69
2023/10/14 06:02:20;;;;;;;11.70;4.93;;;16.30;99.90;;;;;;5026904;28;20455;-68
2023/10/14 06:04:50;;;;;;;12.70;4.80;;;16.40;99.90;;;;;;5027589;28;20892;-68
2023/10/14 06:07:19;;;;;;;14.53;4.90;;;16.40;99.90;;;;;;5027532;28;20977;-69
2023/10/14 06:09:47;;;;;;;10.00;3.70;;;16.40;99.90;;;;;;5027683;28;20446;-68
2023/10/14 06:12:16;;;;;;;11.97;4.33;;;16.40;99.90;;;;;;5027113;28;20449;-68
2023/10/14 06:14:46;;;;;;;11.37;4.00;;;16.30;99.90;;;;;;5026955;28;20960;-69
2023/10/14 06:17:15;;;;;;;12.73;3.67;;;16.40;99.90;;;;;;5026450;28;20450;-68
2023/10/14 06:19:45;;;;;;;9.27;3.77;;;16.30;99.90;;;;;;5026991;28;20817;-70
2023/10/14 06:22:14;;;;;;;13.67;3.97;;;16.30;99.90;;;;;;5027186;28;20523;-68
2023/10/14 06:24:43;;;;;;;9.93;3.30;;;16.40;99.90;;;;;;5026651;28;20458;-68
2023/10/14 06:27:20;;;;;;;10.97;3.37;;;16.50;99.90;;;;;;5027496;28;20449;-67
2023/10/14 06:29:50;;;;;;;11.80;3.37;;;16.60;99.90;;;;;;5027641;28;21019;-68
2023/10/14 06:32:18;;;;;;;10.90;3.20;;;16.70;99.90;;;;;;5026615;28;21133;-67
2023/10/14 06:34:57;;;;;;;10.30;3.20;;;16.80;99.90;;;;;;5027167;28;20578;-69
2023/10/14 06:37:27;;;;;;;8.43;3.00;;;16.90;99.90;;;;;;5027427;28;20449;-69
2023/10/14 06:39:56;;;;;;;8.70;2.53;;;17.00;99.90;;;;;;5026935;28;21084;-68
2023/10/14 06:42:26;;;;;;;9.47;2.67;;;17.00;99.90;;;;;;5026929;28;20558;-69
2023/10/14 06:44:57;;;;;;;8.47;2.70;;;17.10;99.90;;;;;;5027074;28;20978;-69
2023/10/14 06:47:27;;;;;;;9.60;2.77;;;17.20;99.90;;;;;;5026914;28;20503;-70
2023/10/14 06:49:57;;;;;;;12.73;2.63;;;17.10;99.90;;;;;;5026794;28;20440;-67
2023/10/14 06:52:25;;;;;;;8.80;2.33;;;17.20;99.90;;;;;;5025437;28;20506;-68
2023/10/14 06:54:53;;;;;;;8.50;2.27;;;17.20;99.90;;;;;;5025923;28;20475;-68
2023/10/14 06:57:22;;;;;;;9.57;2.47;;;17.30;99.90;;;;;;5026716;28;20816;-68
2023/10/14 06:59:51;;;;;;;9.83;2.30;;;17.40;99.90;;;;;;5026572;28;20537;-69
2023/10/14 07:02:21;;;;;;;8.50;2.90;;;17.40;99.90;;;;;;5025770;28;20488;-67
2023/10/14 07:04:50;;;;;;;9.17;2.30;;;17.40;99.90;;;;;;5026482;28;20580;-67
2023/10/14 07:07:19;;;;;;;9.67;2.10;;;17.50;99.90;;;;;;5026775;28;20812;-68
2023/10/14 07:09:48;;;;;;;10.60;2.60;;;17.60;99.90;;;;;;5026794;28;20507;-69
2023/10/14 07:12:19;;;;;;;8.07;2.30;;;17.70;99.90;;;;;;5025864;28;20484;-68
2023/10/14 07:14:48;;;;;;;10.10;2.80;;;17.80;99.90;;;;;;5025843;28;20464;-69
2023/10/14 07:17:22;;;;;;;10.67;2.30;;;17.90;99.90;;;;;;5026582;28;20484;-68
2023/10/14 07:19:50;;;;;;;8.73;3.00;;;18.00;99.90;;;;;;5026174;28;21038;-69
2023/10/14 07:22:21;;;;;;;9.63;2.20;;;18.10;99.90;;;;;;5025709;28;20441;-67
2023/10/14 07:24:50;;;;;;;7.43;2.00;;;18.20;99.90;;;;;;5025990;28;20489;-69
2023/10/14 07:27:20;;;;;;;8.40;2.13;;;18.20;99.90;;;;;;5025842;28;20544;-68
2023/10/14 07:29:48;;;;;;;8.73;1.80;;;18.30;99.90;;;;;;5025450;28;20441;-68
2023/10/14 07:32:19;;;;;;;8.57;2.10;;;18.40;99.90;;;;;;5025687;28;20530;-68
2023/10/14 07:34:50;;;;;;;10.10;1.80;;;18.40;99.90;;;;;;5025650;28;21165;-68
2023/10/14 07:37:20;;;;;;;8.37;1.77;;;18.40;99.90;;;;;;5026031;28;20473;-68
2023/10/14 07:39:52;;;;;;;8.70;1.90;;;18.40;99.90;;;;;;5025695;28;20445;-68
2023/10/14 07:42:21;;;;;;;9.10;1.80;;;18.40;99.90;;;;;;5024862;28;20449;-68
2023/10/14 07:44:52;;;;;;;9.67;2.43;;;18.40;99.90;;;;;;5024489;28;20453;-67
2023/10/14 07:47:21;;;;;;;7.37;1.63;;;18.40;99.90;;;;;;5025719;28;20616;-67
2023/10/14 07:49:50;;;;;;;7.50;1.47;;;18.40;99.90;;;;;;5025719;28;20452;-68
2023/10/14 07:52:20;;;;;;;9.60;1.57;;;18.50;99.90;;;;;;5025128;28;20453;-68
2023/10/14 07:54:51;;;;;;;9.90;1.70;;;18.60;99.90;;;;;;5024955;28;20534;-68
2023/10/14 07:57:19;;;;;;;7.40;1.90;;;18.60;99.90;;;;;;5025732;28;20489;-68
2023/10/14 07:59:50;;;;;;;8.10;1.80;;;18.70;99.90;;;;;;5025116;28;20491;-68
2023/10/14 08:02:19;;;;;;;8.75;1.90;;;18.80;99.90;;;;;;5024647;28;20469;-68
2023/10/14 08:04:47;;;;;;;7.40;1.40;;;19.00;99.90;;;;;;5025366;28;20253;-69
2023/10/14 08:07:15;;;;;;;9.73;1.97;;;19.00;99.90;;;;;;5025959;28;20445;-70
2023/10/14 08:09:45;;;;;;;8.00;1.50;;;19.00;99.90;;;;;;5025612;28;20472;-70
2023/10/14 08:12:14;;;;;;;6.90;1.50;;;18.90;99.90;;;;;;5025398;28;21076;-69
2023/10/14 08:14:44;;;;;;;9.60;1.63;;;18.80;99.90;;;;;;5025669;28;20464;-69
2023/10/14 08:17:12;;;;;;;7.50;1.57;;;18.70;99.90;;;;;;5025579;28;20479;-69
2023/10/14 08:19:41;;;;;;;7.13;1.43;;;18.60;99.90;;;;;;5025591;28;20540;-71
2023/10/14 08:22:14;;;;;;;8.10;1.50;;;18.70;99.90;;;;;;5024205;28;20437;-71
2023/10/14 08:24:42;;;;;;;6.77;1.30;;;18.80;99.90;;;;;;5022344;28;21003;-70
2023/10/14 08:27:12;;;;;;;7.03;2.10;;;18.90;99.90;;;;;;5025045;28;20440;-69
2023/10/14 08:29:41;;;;;;;7.87;1.40;;;18.90;99.90;;;;;;5022658;28;20492;-69
2023/10/14 08:32:09;;;;;;;7.10;1.50;;;18.90;99.90;;;;;;5024395;28;20472;-67
2023/10/14 08:34:37;;;;;;;8.03;1.83;;;18.90;99.90;;;;;;5024312;28;20461;-69
2023/10/14 08:37:07;;;;;;;8.00;2.00;;;18.90;99.90;;;;;;5024737;28;20564;-70
2023/10/14 08:39:35;;;;;;;10.70;3.67;;;19.10;99.90;;;;;;5024940;28;20455;-69
2023/10/14 08:42:05;;;;;;;8.43;2.00;;;19.30;99.90;;;;;;5025021;28;20510;-69
2023/10/14 08:44:40;;;;;;;10.20;2.60;;;19.40;99.90;;;;;;5025004;28;20532;-69
2023/10/14 08:47:13;;;;;;;8.50;1.80;;;19.70;99.90;;;;;;5026074;28;20441;-71
2023/10/14 08:49:43;;;;;;;8.10;2.17;;;19.90;99.90;;;;;;5025585;28;20533;-71
2023/10/14 08:52:16;;;;;;;7.00;1.83;;;20.10;99.90;;;;;;5025538;28;20530;-70
2023/10/14 08:54:46;;;;;;;11.50;2.30;;;20.10;99.90;;;;;;5024798;28;20477;-72
2023/10/14 08:57:15;;;;;;;8.10;1.73;;;20.20;99.90;;;;;;5023136;28;20488;-73
2023/10/14 08:59:44;;;;;;;7.37;1.80;;;20.10;99.90;;;;;;5024407;28;20495;-70
2023/10/14 09:02:13;;;;;;;8.00;1.80;;;20.20;99.90;;;;;;5024366;28;20440;-71
2023/10/14 09:04:41;;;;;;;8.30;1.07;;;20.10;99.90;;;;;;5024458;28;20897;-72
2023/10/14 09:07:14;;;;;;;6.00;0.70;;;19.70;99.90;;;;;;5025107;28;20433;-71
2023/10/14 09:09:42;;;;;;;6.30;0.83;;;18.60;99.90;;;;;;5024422;28;20536;-72
2023/10/14 09:12:11;;;;;;;7.93;1.50;;;17.70;99.90;;;;;;5024719;28;20445;-71
2023/10/14 09:14:40;;;;;;;6.30;1.20;;;16.80;99.90;;;;;;5024895;28;20544;-70
2023/10/14 09:17:10;;;;;;;7.37;1.60;;;15.90;99.90;;;;;;5025151;28;20484;-71
2023/10/14 09:19:44;;;;;;;6.50;1.20;;;15.50;99.90;;;;;;5023728;28;20990;-71
2023/10/14 09:22:23;;;;;;;8.10;1.90;;;15.20;99.90;;;;;;5025017;28;20524;-69
2023/10/14 09:24:51;;;;;;;6.40;1.33;;;15.10;99.90;;;;;;5025097;28;20461;-73
2023/10/14 09:27:20;;;;;;;6.73;1.60;;;15.10;99.90;;;;;;5022159;28;20962;-68
2023/10/14 09:29:49;;;;;;;7.80;2.00;;;15.00;99.90;;;;;;5022135;28;20537;-69
2023/10/14 09:32:18;;;;;;;7.00;1.60;;;15.00;99.90;;;;;;5021311;28;20528;-68
2023/10/14 09:34:46;;;;;;;7.37;1.60;;;15.00;99.90;;;;;;5022432;28;20591;-68
2023/10/14 09:37:17;;;;;;;7.33;1.27;;;14.90;99.90;;;;;;5020558;28;20483;-70
2023/10/14 09:39:49;;;;;;;6.67;1.40;;;14.80;99.90;;;;;;5019250;28;20535;-70
2023/10/14 09:42:21;;;;;;;6.70;1.70;;;14.90;99.90;;;;;;5023758;28;20453;-69
2023/10/14 09:44:51;;;;;;;6.60;1.37;;;15.00;99.90;;;;;;5022079;28;20521;-70
2023/10/14 09:47:23;;;;;;;6.77;1.80;;;15.20;99.90;;;;;;5028487;28;20444;-68
2023/10/14 09:49:53;;;;;;;8.20;1.70;;;15.30;99.90;;;;;;5025524;28;20461;-68
2023/10/14 09:52:22;;;;;;;7.23;1.60;;;15.50;99.90;;;;;;5026527;28;20897;-68
2023/10/14 09:54:52;;;;;;;7.17;1.60;;;15.50;99.90;;;;;;5020384;28;20553;-71
2023/10/14 09:57:22;;;;;;;8.43;1.70;;;15.60;99.90;;;;;;5016259;28;20495;-72
2023/10/14 09:59:53;;;;;;;7.80;1.60;;;15.80;99.90;;;;;;5025484;28;20457;-71
2023/10/14 10:02:23;;;;;;;7.20;1.87;;;15.90;99.90;;;;;;5018957;28;20462;-70
2023/10/14 10:04:53;;;;;;;8.63;2.83;;;16.00;99.90;;;;;;5018948;28;20547;-69
2023/10/14 10:07:41;;;;;;;7.97;2.00;;;16.10;99.90;;;;;;5024378;28;20453;-67
2023/10/14 10:10:16;;;;;;;7.77;2.23;;;16.10;99.90;;;;;;5027820;28;20512;-67
2023/10/14 10:12:52;;;;;;;7.03;2.10;;;16.20;99.90;;;;;;5029995;28;20475;-68
2023/10/14 10:15:21;;;;;;;7.23;1.27;;;16.20;99.90;;;;;;5030928;28;20529;-66
2023/10/14 10:18:06;;;;;;;6.57;1.50;;;16.30;99.90;;;;;;5030367;28;20485;-67
2023/10/14 10:20:36;;;;;;;6.93;1.47;;;16.40;99.90;;;;;;5030689;28;20854;-69
2023/10/14 10:23:09;;;;;;;6.80;1.10;;;16.40;99.90;;;;;;5035962;28;20469;-67
2023/10/14 10:25:51;;;;;;;6.80;1.20;;;16.40;99.90;;;;;;5031186;28;20452;-67
2023/10/14 10:28:41;;;;;;;6.73;1.17;;;16.70;99.90;;;;;;5031286;28;20440;-68
2023/10/14 10:31:14;;;;;;;7.50;1.43;;;16.90;99.90;;;;;;5030105;28;20548;-69
2023/10/14 10:33:54;;;;;;;8.73;1.60;;;17.00;99.90;;;;;;5025277;28;20485;-68
2023/10/14 10:36:25;;;;;;;6.47;1.17;;;16.90;99.90;;;;;;5030511;28;20455;-68
2023/10/14 10:38:55;;;;;;;8.53;1.73;;;16.80;99.90;;;;;;5022362;28;20978;-69
2023/10/14 10:41:25;;;;;;;7.27;1.37;;;16.80;99.90;;;;;;5028898;28;20536;-66
2023/10/14 10:44:01;;;;;;;6.50;1.30;;;16.80;99.90;;;;;;5024515;28;20913;-72
2023/10/14 10:46:38;;;;;;;6.30;1.30;;;16.70;99.90;;;;;;5020460;28;20459;-68
2023/10/14 10:49:10;;;;;;;6.40;1.20;;;16.50;99.90;;;;;;5027608;28;20486;-67
2023/10/14 10:51:50;;;;;;;6.07;1.10;;;16.40;99.90;;;;;;5030082;28;20784;-67
2023/10/14 10:54:22;;;;;;;6.20;1.07;;;16.40;99.90;;;;;;5030493;28;20551;-67
2023/10/14 10:56:51;;;;;;;6.33;1.03;;;16.40;99.90;;;;;;5023993;28;20531;-68
2023/10/14 10:59:36;;;;;;;6.40;1.30;;;16.40;99.90;;;;;;5030538;28;22059;-68
2023/10/14 11:02:07;;;;;;;6.43;1.53;;;16.30;99.90;;;;;;5030175;28;20533;-68
2023/10/14 11:04:37;;;;;;;7.43;1.60;;;16.10;99.90;;;;;;5030359;28;20476;-67
2023/10/14 11:07:07;;;;;;;6.53;1.47;;;16.00;99.90;;;;;;5030573;28;20946;-69
2023/10/14 11:09:39;;;;;;;6.97;1.50;;;15.90;99.90;;;;;;5030229;28;20979;-68
2023/10/14 11:12:08;;;;;;;6.67;1.37;;;15.90;99.90;;;;;;5030271;28;20502;-69
2023/10/14 11:14:36;;;;;;;9.03;1.80;;;15.80;99.90;;;;;;5030212;28;20479;-69
2023/10/14 11:17:06;;;;;;;9.10;2.00;;;15.80;99.90;;;;;;5028861;28;20881;-70
2023/10/14 11:19:35;;;;;;;7.00;1.87;;;15.70;99.90;;;;;;5029891;28;20452;-68
2023/10/14 11:22:06;;;;;;;7.60;1.67;;;15.60;99.90;;;;;;5029634;28;20547;-69
2023/10/14 11:24:36;;;;;;;8.67;2.10;;;15.40;99.90;;;;;;5029684;28;20470;-68
2023/10/14 11:27:06;;;;;;;7.17;1.50;;;15.40;99.90;;;;;;5029725;28;20445;-68
2023/10/14 11:29:35;;;;;;;6.47;1.40;;;15.30;99.90;;;;;;5029875;28;20545;-68
2023/10/14 11:32:05;;;;;;;7.03;1.97;;;15.20;99.90;;;;;;5029929;28;20532;-70
2023/10/14 11:34:36;;;;;;;6.80;1.70;;;15.20;99.90;;;;;;5029861;28;20560;-68
2023/10/14 11:37:10;;;;;;;8.83;1.80;;;15.10;99.90;;;;;;5030052;28;20449;-70
2023/10/14 11:39:39;;;;;;;9.03;1.80;;;15.00;99.90;;;;;;5029826;28;20456;-70
2023/10/14 11:42:07;;;;;;;7.07;1.13;;;15.00;99.90;;;;;;5029706;28;20434;-68
2023/10/14 11:44:37;;;;;;;9.90;1.60;;;15.10;99.90;;;;;;5029423;28;20462;-67
2023/10/14 11:47:06;;;;;;;6.97;1.17;;;15.30;99.90;;;;;;5029605;28;21034;-69
2023/10/14 11:49:36;;;;;;;7.17;1.33;;;15.40;99.90;;;;;;5029680;28;20461;-69
2023/10/14 11:52:05;;;;;;;7.70;1.30;;;15.30;99.90;;;;;;5029175;28;20503;-67
2023/10/14 11:54:37;;;;;;;7.70;1.63;;;15.20;99.90;;;;;;5029006;28;20499;-69
2023/10/14 11:57:07;;;;;;;6.20;1.30;;;15.10;99.90;;;;;;5029552;28;20504;-68
2023/10/14 11:59:38;;;;;;;6.40;1.30;;;15.00;99.90;;;;;;5028833;28;20489;-68
2023/10/14 12:02:06;;;;;;;6.60;1.60;;;14.80;99.90;;;;;;5028954;28;20456;-68
2023/10/14 12:04:34;;;;;;;8.07;1.40;;;14.70;99.90;;;;;;5029077;28;20469;-67
2023/10/14 12:07:04;;;;;;;7.00;1.33;;;14.60;99.90;;;;;;5029641;28;20449;-68
2023/10/14 12:09:32;;;;;;;7.10;1.53;;;14.50;99.90;;;;;;5029184;28;20456;-68
2023/10/14 12:12:03;;;;;;;7.60;1.40;;;14.40;99.90;;;;;;5029152;28;20500;-68
2023/10/14 12:14:31;;;;;;;7.83;1.60;;;14.50;99.90;;;;;;5029309;28;20488;-68
2023/10/14 12:17:04;;;;;;;7.33;1.70;;;14.60;99.90;;;;;;5029265;28;20445;-67
2023/10/14 12:19:33;;;;;;;7.60;1.53;;;14.60;99.90;;;;;;5029335;28;20892;-68
2023/10/14 12:22:01;;;;;;;7.13;1.70;;;14.60;99.90;;;;;;5028875;28;20503;-67
2023/10/14 12:24:29;;;;;;;8.10;1.73;;;14.60;99.90;;;;;;5028815;28;20476;-67
2023/10/14 12:26:58;;;;;;;6.90;1.70;;;14.60;99.90;;;;;;5029233;28;20473;-67
2023/10/14 12:29:28;;;;;;;6.20;1.03;;;14.50;99.90;;;;;;5028835;28;20456;-67
2023/10/14 12:31:59;;;;;;;7.07;1.20;;;14.50;99.90;;;;;;5028249;28;20498;-68
2023/10/14 12:34:44;;;;;;;6.50;1.10;;;14.50;99.90;;;;;;5027725;28;20468;-67
2023/10/14 12:37:17;;;;;;;6.60;1.43;;;14.40;99.90;;;;;;5028636;28;20927;-68
2023/10/14 12:39:49;;;;;;;7.30;1.80;;;14.50;99.90;;;;;;5027377;28;21322;-67
2023/10/14 12:42:18;;;;;;;7.07;1.53;;;14.50;99.90;;;;;;5028069;28;20444;-68
2023/10/14 12:44:54;;;;;;;6.57;1.50;;;14.60;99.90;;;;;;5028636;28;20467;-67
2023/10/14 12:47:24;;;;;;;6.90;1.80;;;14.60;99.90;;;;;;5025960;28;20457;-66
2023/10/14 12:49:54;;;;;;;8.17;2.30;;;14.60;99.90;;;;;;5027696;28;20484;-66
2023/10/14 12:52:23;;;;;;;7.60;1.90;;;14.60;99.90;;;;;;5027883;28;20449;-67
2023/10/14 12:54:52;;;;;;;6.70;1.30;;;14.60;99.90;;;;;;5027709;28;20473;-70
2023/10/14 12:57:21;;;;;;;7.60;1.23;;;14.60;99.90;;;;;;5025574;28;20456;-67
2023/10/14 12:59:49;;;;;;;6.70;1.30;;;14.60;99.90;;;;;;5025169;28;20477;-70
2023/10/14 13:02:20;;;;;;;6.30;1.00;;;14.60;99.90;;;;;;5025253;28;20436;-68
2023/10/14 13:04:48;;;;;;;8.30;1.50;;;14.40;99.90;;;;;;5025541;28;20468;-68
2023/10/14 13:07:16;;;;;;;6.10;1.17;;;14.40;99.90;;;;;;5025826;28;20449;-67